sensor_id;sensor_type;location;lat;lon;timestamp;pressure;altitude;pressure_sealevel;temperature;humidity
5062;BME280;2351;50.812;12.872;2024-01-30T00:02:11;99277.53;;;-1.27;71.17
5062;BME280;2351;50.812;12.872;2024-01-30T00:04:42;99273.28;;;-1.32;70.80
5062;BME280;2351;50.812;12.872;2024-01-30T00:07:14;99275.09;;;-1.38;71.08
5062;BME280;2351;50.812;12.872;2024-01-30T00:09:46;99276.00;;;-1.40;71.41
5062;BME280;2351;50.812;12.872;2024-01-30T00:12:18;99267.34;;;-1.42;71.70
5062;BME280;2351;50.812;12.872;2024-01-30T00:14:52;99269.06;;;-1.41;71.95
5062;BME280;2351;50.812;12.872;2024-01-30T00:17:24;99273.44;;;-1.43;71.91
5062;BME280;2351;50.812;12.872;2024-01-30T00:19:56;99277.69;;;-1.39;72.25
5062;BME280;2351;50.812;12.872;2024-01-30T00:22:28;99279.47;;;-1.40;72.53
5062;BME280;2351;50.812;12.872;2024-01-30T00:25:00;99280.34;;;-1.42;72.67
5062;BME280;2351;50.812;12.872;2024-01-30T00:27:32;99275.22;;;-1.47;72.94
5062;BME280;2351;50.812;12.872;2024-01-30T00:30:07;99277.78;;;-1.44;73.67
5062;BME280;2351;50.812;12.872;2024-01-30T00:32:39;99276.09;;;-1.46;73.78
5062;BME280;2351;50.812;12.872;2024-01-30T00:35:10;99274.34;;;-1.46;73.75
5062;BME280;2351;50.812;12.872;2024-01-30T00:37:42;99279.56;;;-1.46;73.21
5062;BME280;2351;50.812;12.872;2024-01-30T00:40:14;99275.28;;;-1.48;74.10
5062;BME280;2351;50.812;12.872;2024-01-30T00:42:48;99275.31;;;-1.52;74.01
5062;BME280;2351;50.812;12.872;2024-01-30T00:45:21;99283.13;;;-1.53;73.79
5062;BME280;2351;50.812;12.872;2024-01-30T00:47:52;99273.59;;;-1.54;73.97
5062;BME280;2351;50.812;12.872;2024-01-30T00:50:24;99266.72;;;-1.55;74.76
5062;BME280;2351;50.812;12.872;2024-01-30T00:52:56;99270.16;;;-1.55;74.52
5062;BME280;2351;50.812;12.872;2024-01-30T00:55:28;99263.31;;;-1.59;74.49
5062;BME280;2351;50.812;12.872;2024-01-30T00:58:00;99270.34;;;-1.65;74.99
5062;BME280;2351;50.812;12.872;2024-01-30T01:00:33;99271.25;;;-1.70;75.25
5062;BME280;2351;50.812;12.872;2024-01-30T01:03:05;99267.91;;;-1.76;75.02
5062;BME280;2351;50.812;12.872;2024-01-30T01:05:37;99269.66;;;-1.78;75.40
5062;BME280;2351;50.812;12.872;2024-01-30T01:08:09;99269.66;;;-1.77;75.96
5062;BME280;2351;50.812;12.872;2024-01-30T01:10:41;99276.59;;;-1.79;76.18
5062;BME280;2351;50.812;12.872;2024-01-30T01:13:13;99278.31;;;-1.79;75.83
5062;BME280;2351;50.812;12.872;2024-01-30T01:15:46;99266.22;;;-1.80;76.03
5062;BME280;2351;50.812;12.872;2024-01-30T01:18:18;99265.41;;;-1.84;75.91
5062;BME280;2351;50.812;12.872;2024-01-30T01:20:49;99255.13;;;-1.90;75.82
5062;BME280;2351;50.812;12.872;2024-01-30T01:23:21;99257.75;;;-1.92;76.62
5062;BME280;2351;50.812;12.872;2024-01-30T01:25:53;99261.25;;;-1.96;76.83
5062;BME280;2351;50.812;12.872;2024-01-30T01:28:25;99257.81;;;-1.98;77.12
5062;BME280;2351;50.812;12.872;2024-01-30T01:30:58;99256.16;;;-2.02;77.34
5062;BME280;2351;50.812;12.872;2024-01-30T01:33:35;99263.94;;;-2.01;77.25
5062;BME280;2351;50.812;12.872;2024-01-30T01:36:08;99257.03;;;-2.02;77.56
5062;BME280;2351;50.812;12.872;2024-01-30T01:38:39;99259.63;;;-2.03;77.42
5062;BME280;2351;50.812;12.872;2024-01-30T01:41:11;99257.91;;;-2.04;78.05
5062;BME280;2351;50.812;12.872;2024-01-30T01:43:43;99251.88;;;-2.05;78.23
5062;BME280;2351;50.812;12.872;2024-01-30T01:46:17;99251.88;;;-2.05;78.00
5062;BME280;2351;50.812;12.872;2024-01-30T01:48:49;99252.81;;;-2.10;78.34
5062;BME280;2351;50.812;12.872;2024-01-30T01:51:22;99257.13;;;-2.11;78.19
5062;BME280;2351;50.812;12.872;2024-01-30T01:53:55;99260.59;;;-2.12;78.82
5062;BME280;2351;50.812;12.872;2024-01-30T01:56:27;99249.41;;;-2.16;78.79
5062;BME280;2351;50.812;12.872;2024-01-30T01:59:05;99256.31;;;-2.15;79.25
5062;BME280;2351;50.812;12.872;2024-01-30T02:01:39;99256.31;;;-2.15;78.90
5062;BME280;2351;50.812;12.872;2024-01-30T02:04:12;99257.16;;;-2.13;79.42
5062;BME280;2351;50.812;12.872;2024-01-30T02:06:43;99246.75;;;-2.11;79.29
5062;BME280;2351;50.812;12.872;2024-01-30T02:09:15;99253.69;;;-2.12;79.59
5062;BME280;2351;50.812;12.872;2024-01-30T02:11:47;99246.78;;;-2.13;79.29
5062;BME280;2351;50.812;12.872;2024-01-30T02:14:19;99252.84;;;-2.14;79.33
5062;BME280;2351;50.812;12.872;2024-01-30T02:16:52;99252.84;;;-2.14;79.68
5062;BME280;2351;50.812;12.872;2024-01-30T02:19:24;99247.66;;;-2.14;80.11
5062;BME280;2351;50.812;12.872;2024-01-30T02:21:57;99245.06;;;-2.14;79.55
5062;BME280;2351;50.812;12.872;2024-01-30T02:24:29;99244.19;;;-2.13;80.34
5062;BME280;2351;50.812;12.872;2024-01-30T02:27:01;99247.63;;;-2.10;80.62
5062;BME280;2351;50.812;12.872;2024-01-30T02:29:32;99248.44;;;-2.08;80.92
5062;BME280;2351;50.812;12.872;2024-01-30T02:32:05;99244.97;;;-2.06;81.22
5062;BME280;2351;50.812;12.872;2024-01-30T02:34:37;99254.47;;;-2.05;80.45
5062;BME280;2351;50.812;12.872;2024-01-30T02:37:11;99245.81;;;-2.05;81.14
5062;BME280;2351;50.812;12.872;2024-01-30T02:39:43;99247.53;;;-2.04;81.36
5062;BME280;2351;50.812;12.872;2024-01-30T02:42:14;99246.69;;;-2.05;81.42
5062;BME280;2351;50.812;12.872;2024-01-30T02:44:46;99242.28;;;-2.00;81.49
5062;BME280;2351;50.812;12.872;2024-01-30T02:47:18;99242.25;;;-1.98;81.51
5062;BME280;2351;50.812;12.872;2024-01-30T02:49:50;99239.66;;;-1.98;81.80
5062;BME280;2351;50.812;12.872;2024-01-30T02:52:23;99237.06;;;-1.98;81.81
5062;BME280;2351;50.812;12.872;2024-01-30T02:54:55;99231.91;;;-2.01;81.53
5062;BME280;2351;50.812;12.872;2024-01-30T02:57:27;99235.41;;;-2.04;81.62
5062;BME280;2351;50.812;12.872;2024-01-30T02:59:59;99238.88;;;-2.05;82.05
5062;BME280;2351;50.812;12.872;2024-01-30T03:02:30;99233.66;;;-2.03;82.46
5062;BME280;2351;50.812;12.872;2024-01-30T03:05:02;99237.06;;;-1.98;82.30
5062;BME280;2351;50.812;12.872;2024-01-30T03:07:36;99232.72;;;-1.98;82.66
5062;BME280;2351;50.812;12.872;2024-01-30T03:10:08;99229.25;;;-1.97;83.11
5062;BME280;2351;50.812;12.872;2024-01-30T03:12:40;99229.25;;;-1.97;82.61
5062;BME280;2351;50.812;12.872;2024-01-30T03:15:12;99228.34;;;-1.94;82.94
5062;BME280;2351;50.812;12.872;2024-01-30T03:17:43;99223.97;;;-1.90;83.44
5062;BME280;2351;50.812;12.872;2024-01-30T03:20:15;99234.34;;;-1.89;83.45
5062;BME280;2351;50.812;12.872;2024-01-30T03:22:48;99230.03;;;-1.90;83.38
5062;BME280;2351;50.812;12.872;2024-01-30T03:25:20;99228.31;;;-1.91;83.42
5062;BME280;2351;50.812;12.872;2024-01-30T03:27:52;99228.34;;;-1.94;83.38
5062;BME280;2351;50.812;12.872;2024-01-30T03:30:24;99231.84;;;-1.97;83.47
5062;BME280;2351;50.812;12.872;2024-01-30T03:32:55;99226.72;;;-2.01;83.32
5062;BME280;2351;50.812;12.872;2024-01-30T03:35:27;99227.63;;;-2.05;83.25
5062;BME280;2351;50.812;12.872;2024-01-30T03:38:01;99225.09;;;-2.08;83.33
5062;BME280;2351;50.812;12.872;2024-01-30T03:40:32;99222.53;;;-2.10;84.25
5062;BME280;2351;50.812;12.872;2024-01-30T03:43:04;99227.69;;;-2.08;83.58
5062;BME280;2351;50.812;12.872;2024-01-30T03:45:36;99228.56;;;-2.08;84.60
5062;BME280;2351;50.812;12.872;2024-01-30T03:48:09;99222.56;;;-2.12;84.16
5062;BME280;2351;50.812;12.872;2024-01-30T03:50:40;99218.25;;;-2.13;84.49
5062;BME280;2351;50.812;12.872;2024-01-30T03:53:14;99223.44;;;-2.13;84.77
5062;BME280;2351;50.812;12.872;2024-01-30T03:55:45;99212.09;;;-2.07;84.65
5062;BME280;2351;50.812;12.872;2024-01-30T03:58:17;99213.78;;;-2.03;85.14
5062;BME280;2351;50.812;12.872;2024-01-30T04:00:49;99220.66;;;-1.99;85.13
5062;BME280;2351;50.812;12.872;2024-01-30T04:03:21;99213.75;;;-2.01;85.31
5062;BME280;2351;50.812;12.872;2024-01-30T04:05:53;99212.06;;;-2.04;85.46
5062;BME280;2351;50.812;12.872;2024-01-30T04:08:26;99212.94;;;-2.06;85.00
5062;BME280;2351;50.812;12.872;2024-01-30T04:10:58;99213.91;;;-2.10;85.59
5062;BME280;2351;50.812;12.872;2024-01-30T04:13:29;99207.91;;;-2.16;85.39
5062;BME280;2351;50.812;12.872;2024-01-30T04:16:02;99214.00;;;-2.20;85.31
5062;BME280;2351;50.812;12.872;2024-01-30T04:18:34;99208.03;;;-2.25;85.38
5062;BME280;2351;50.812;12.872;2024-01-30T04:21:05;99202.88;;;-2.28;85.74
5062;BME280;2351;50.812;12.872;2024-01-30T04:23:39;99202.00;;;-2.27;86.09
5062;BME280;2351;50.812;12.872;2024-01-30T04:26:11;99206.31;;;-2.26;86.29
5062;BME280;2351;50.812;12.872;2024-01-30T04:28:44;99204.59;;;-2.27;86.19
5062;BME280;2351;50.812;12.872;2024-01-30T04:31:16;99209.81;;;-2.29;86.56
5062;BME280;2351;50.812;12.872;2024-01-30T04:33:48;99205.50;;;-2.31;86.25
5062;BME280;2351;50.812;12.872;2024-01-30T04:36:19;99202.91;;;-2.31;86.72
5062;BME280;2351;50.812;12.872;2024-01-30T04:38:53;99198.59;;;-2.31;86.93
5062;BME280;2351;50.812;12.872;2024-01-30T04:41:24;99204.63;;;-2.30;86.96
5062;BME280;2351;50.812;12.872;2024-01-30T04:43:56;99197.69;;;-2.27;86.97
5062;BME280;2351;50.812;12.872;2024-01-30T04:46:28;99200.25;;;-2.23;87.35
5062;BME280;2351;50.812;12.872;2024-01-30T04:49:00;99194.19;;;-2.24;87.15
5062;BME280;2351;50.812;12.872;2024-01-30T04:51:32;99192.41;;;-2.22;87.32
5062;BME280;2351;50.812;12.872;2024-01-30T04:54:05;99195.88;;;-2.23;87.56
5062;BME280;2351;50.812;12.872;2024-01-30T04:56:37;99193.25;;;-2.20;87.65
5062;BME280;2351;50.812;12.872;2024-01-30T04:59:10;99190.66;;;-2.20;87.92
5062;BME280;2351;50.812;12.872;2024-01-30T05:01:41;99195.81;;;-2.17;87.99
5062;BME280;2351;50.812;12.872;2024-01-30T05:04:16;99189.72;;;-2.14;88.25
5062;BME280;2351;50.812;12.872;2024-01-30T05:06:48;99188.91;;;-2.18;88.29
5062;BME280;2351;50.812;12.872;2024-01-30T05:09:21;99195.88;;;-2.21;88.67
5062;BME280;2351;50.812;12.872;2024-01-30T05:11:53;99201.94;;;-2.22;88.46
5062;BME280;2351;50.812;12.872;2024-01-30T05:14:24;99192.47;;;-2.23;88.63
5062;BME280;2351;50.812;12.872;2024-01-30T05:16:56;99194.13;;;-2.21;88.61
5062;BME280;2351;50.812;12.872;2024-01-30T05:19:28;99193.13;;;-2.10;89.39
5062;BME280;2351;50.812;12.872;2024-01-30T05:22:00;99191.22;;;-1.99;89.64
5062;BME280;2351;50.812;12.872;2024-01-30T05:24:33;99192.09;;;-2.00;89.53
5062;BME280;2351;50.812;12.872;2024-01-30T05:27:05;99181.81;;;-2.05;89.85
5062;BME280;2351;50.812;12.872;2024-01-30T05:29:36;99190.50;;;-2.09;89.47
5062;BME280;2351;50.812;12.872;2024-01-30T05:32:08;99190.59;;;-2.14;89.21
5062;BME280;2351;50.812;12.872;2024-01-30T05:34:41;99182.84;;;-2.18;89.32
5062;BME280;2351;50.812;12.872;2024-01-30T05:37:12;99183.75;;;-2.21;89.49
5062;BME280;2351;50.812;12.872;2024-01-30T05:39:53;99183.81;;;-2.24;89.77
5062;BME280;2351;50.812;12.872;2024-01-30T05:42:26;99189.88;;;-2.25;89.68
5062;BME280;2351;50.812;12.872;2024-01-30T05:44:58;99182.09;;;-2.25;90.18
5062;BME280;2351;50.812;12.872;2024-01-30T05:47:30;99192.50;;;-2.28;89.90
5062;BME280;2351;50.812;12.872;2024-01-30T05:50:02;99187.34;;;-2.30;89.92
5062;BME280;2351;50.812;12.872;2024-01-30T05:52:34;99187.34;;;-2.31;89.88
5062;BME280;2351;50.812;12.872;2024-01-30T05:55:08;99195.19;;;-2.34;90.36
5062;BME280;2351;50.812;12.872;2024-01-30T05:57:42;99190.94;;;-2.38;90.32
5062;BME280;2351;50.812;12.872;2024-01-30T06:00:15;99196.13;;;-2.40;90.68
5062;BME280;2351;50.812;12.872;2024-01-30T06:02:47;99192.69;;;-2.40;90.28
5062;BME280;2351;50.812;12.872;2024-01-30T06:05:20;99198.72;;;-2.40;90.62
5062;BME280;2351;50.812;12.872;2024-01-30T06:07:52;99201.34;;;-2.42;90.64
5062;BME280;2351;50.812;12.872;2024-01-30T06:10:25;99208.28;;;-2.44;90.43
5062;BME280;2351;50.812;12.872;2024-01-30T06:12:57;99210.88;;;-2.44;90.84
5062;BME280;2351;50.812;12.872;2024-01-30T06:15:28;99207.44;;;-2.46;90.64
5062;BME280;2351;50.812;12.872;2024-01-30T06:18:00;99201.41;;;-2.48;90.46
5062;BME280;2351;50.812;12.872;2024-01-30T06:20:32;99197.97;;;-2.50;91.50
5062;BME280;2351;50.812;12.872;2024-01-30T06:23:04;99202.31;;;-2.50;91.45
5062;BME280;2351;50.812;12.872;2024-01-30T06:25:37;99204.84;;;-2.46;91.17
5062;BME280;2351;50.812;12.872;2024-01-30T06:28:09;99199.66;;;-2.44;91.24
5062;BME280;2351;50.812;12.872;2024-01-30T06:30:41;99196.13;;;-2.38;91.68
5062;BME280;2351;50.812;12.872;2024-01-30T06:33:14;99201.16;;;-2.28;92.44
5062;BME280;2351;50.812;12.872;2024-01-30T06:35:46;99200.97;;;-2.14;92.41
5062;BME280;2351;50.812;12.872;2024-01-30T06:38:17;99197.41;;;-2.09;92.79
5062;BME280;2351;50.812;12.872;2024-01-30T06:40:51;99194.81;;;-2.08;92.24
5062;BME280;2351;50.812;12.872;2024-01-30T06:43:22;99206.03;;;-2.07;93.09
5062;BME280;2351;50.812;12.872;2024-01-30T06:45:54;99203.53;;;-2.10;92.14
5062;BME280;2351;50.812;12.872;2024-01-30T06:48:26;99202.69;;;-2.14;92.28
5062;BME280;2351;50.812;12.872;2024-01-30T06:50:58;99207.91;;;-2.17;92.93
5062;BME280;2351;50.812;12.872;2024-01-30T06:53:30;99201.88;;;-2.18;92.40
5062;BME280;2351;50.812;12.872;2024-01-30T06:56:03;99206.19;;;-2.17;92.86
5062;BME280;2351;50.812;12.872;2024-01-30T06:58:35;99201.00;;;-2.17;92.68
5062;BME280;2351;50.812;12.872;2024-01-30T07:01:14;99200.81;;;-2.04;93.51
5062;BME280;2351;50.812;12.872;2024-01-30T07:03:46;99201.53;;;-1.94;94.06
5062;BME280;2351;50.812;12.872;2024-01-30T07:06:18;99206.56;;;-1.84;93.90
5062;BME280;2351;50.812;12.872;2024-01-30T07:08:50;99204.66;;;-1.74;94.39
5062;BME280;2351;50.812;12.872;2024-01-30T07:11:23;99199.34;;;-1.64;95.32
5062;BME280;2351;50.812;12.872;2024-01-30T07:13:55;99197.41;;;-1.52;96.01
5062;BME280;2351;50.812;12.872;2024-01-30T07:16:27;99194.59;;;-1.39;96.31
5062;BME280;2351;50.812;12.872;2024-01-30T07:18:59;99186.66;;;-1.30;96.51
5062;BME280;2351;50.812;12.872;2024-01-30T07:21:31;99195.91;;;-1.15;98.86
5062;BME280;2351;50.812;12.872;2024-01-30T07:24:03;99207.03;;;-1.08;98.13
5062;BME280;2351;50.812;12.872;2024-01-30T07:26:37;99213.69;;;-0.49;100.00
5062;BME280;2351;50.812;12.872;2024-01-30T07:29:08;99226.84;;;0.61;100.00
5062;BME280;2351;50.812;12.872;2024-01-30T07:31:40;99227.59;;;1.32;100.00
5062;BME280;2351;50.812;12.872;2024-01-30T07:34:12;99227.63;;;1.91;100.00
5062;BME280;2351;50.812;12.872;2024-01-30T07:36:44;99219.31;;;2.35;100.00
5062;BME280;2351;50.812;12.872;2024-01-30T07:39:17;99220.19;;;1.78;94.69
5062;BME280;2351;50.812;12.872;2024-01-30T07:41:50;99220.63;;;1.63;96.40
5062;BME280;2351;50.812;12.872;2024-01-30T07:44:22;99227.06;;;1.51;96.64
5062;BME280;2351;50.812;12.872;2024-01-30T07:46:54;99227.31;;;1.42;97.36
5062;BME280;2351;50.812;12.872;2024-01-30T07:49:26;99229.97;;;1.40;97.50
5062;BME280;2351;50.812;12.872;2024-01-30T07:51:57;99226.16;;;1.52;98.62
5062;BME280;2351;50.812;12.872;2024-01-30T07:54:31;99223.50;;;1.84;99.41
5062;BME280;2351;50.812;12.872;2024-01-30T07:57:05;99213.72;;;2.19;99.49
5062;BME280;2351;50.812;12.872;2024-01-30T07:59:37;99210.50;;;2.39;99.32
5062;BME280;2351;50.812;12.872;2024-01-30T08:02:09;99216.81;;;2.59;99.57
5062;BME280;2351;50.812;12.872;2024-01-30T08:04:41;99211.03;;;2.76;99.74
5062;BME280;2351;50.812;12.872;2024-01-30T08:07:12;99210.41;;;2.94;100.00
5062;BME280;2351;50.812;12.872;2024-01-30T08:09:44;99207.94;;;3.15;100.00
5062;BME280;2351;50.812;12.872;2024-01-30T08:12:17;99211.53;;;3.36;100.00
5062;BME280;2351;50.812;12.872;2024-01-30T08:14:49;99210.81;;;3.56;99.03
5062;BME280;2351;50.812;12.872;2024-01-30T08:17:20;99207.28;;;4.03;99.68
5062;BME280;2351;50.812;12.872;2024-01-30T08:19:52;99205.59;;;4.67;100.00
5062;BME280;2351;50.812;12.872;2024-01-30T08:22:24;99201.22;;;5.09;98.63
5062;BME280;2351;50.812;12.872;2024-01-30T08:24:55;99193.84;;;5.18;96.38
5062;BME280;2351;50.812;12.872;2024-01-30T08:27:28;99196.22;;;5.03;95.05
5062;BME280;2351;50.812;12.872;2024-01-30T08:30:00;99187.50;;;4.82;93.92
5062;BME280;2351;50.812;12.872;2024-01-30T08:32:32;99195.03;;;4.69;93.49
5062;BME280;2351;50.812;12.872;2024-01-30T08:35:04;99185.84;;;4.59;93.14
5062;BME280;2351;50.812;12.872;2024-01-30T08:37:36;99188.91;;;4.48;93.06
5062;BME280;2351;50.812;12.872;2024-01-30T08:40:09;99187.72;;;4.34;92.45
5062;BME280;2351;50.812;12.872;2024-01-30T08:42:42;99192.59;;;4.21;92.05
5062;BME280;2351;50.812;12.872;2024-01-30T08:45:13;99196.56;;;4.10;91.85
5062;BME280;2351;50.812;12.872;2024-01-30T08:47:45;99198.69;;;4.00;90.48
5062;BME280;2351;50.812;12.872;2024-01-30T08:50:17;99195.63;;;3.88;88.60
5062;BME280;2351;50.812;12.872;2024-01-30T08:52:49;99202.16;;;3.78;89.33
5062;BME280;2351;50.812;12.872;2024-01-30T08:55:20;99199.53;;;3.78;90.16
5062;BME280;2351;50.812;12.872;2024-01-30T08:57:53;99204.47;;;3.86;90.77
5062;BME280;2351;50.812;12.872;2024-01-30T09:00:25;99200.28;;;4.04;92.41
5062;BME280;2351;50.812;12.872;2024-01-30T09:02:57;99195.41;;;4.60;95.46
5062;BME280;2351;50.812;12.872;2024-01-30T09:05:28;99199.56;;;5.47;96.96
5062;BME280;2351;50.812;12.872;2024-01-30T09:08:00;99194.31;;;6.23;96.69
5062;BME280;2351;50.812;12.872;2024-01-30T09:10:32;99188.16;;;6.77;95.47
5062;BME280;2351;50.812;12.872;2024-01-30T09:13:05;99192.50;;;7.29;93.58
5062;BME280;2351;50.812;12.872;2024-01-30T09:15:37;99183.56;;;7.49;89.49
5062;BME280;2351;50.812;12.872;2024-01-30T09:18:09;99187.66;;;7.55;87.77
5062;BME280;2351;50.812;12.872;2024-01-30T09:20:41;99193.38;;;7.63;88.82
5062;BME280;2351;50.812;12.872;2024-01-30T09:23:13;99191.25;;;7.70;86.71
5062;BME280;2351;50.812;12.872;2024-01-30T09:25:44;99180.78;;;7.84;87.36
5062;BME280;2351;50.812;12.872;2024-01-30T09:28:17;99179.25;;;8.12;87.02
5062;BME280;2351;50.812;12.872;2024-01-30T09:30:49;99175.38;;;8.34;86.48
5062;BME280;2351;50.812;12.872;2024-01-30T09:33:21;99175.41;;;8.50;86.40
5062;BME280;2351;50.812;12.872;2024-01-30T09:35:52;99172.91;;;8.63;86.16
5062;BME280;2351;50.812;12.872;2024-01-30T09:38:24;99170.75;;;8.70;nan
5062;BME280;2351;50.812;12.872;2024-01-30T09:40:57;99165.19;;;8.74;84.24
5062;BME280;2351;50.812;12.872;2024-01-30T09:43:35;99162.94;;;8.83;82.70
5062;BME280;2351;50.812;12.872;2024-01-30T09:46:11;99167.88;;;8.89;82.47
5062;BME280;2351;50.812;12.872;2024-01-30T09:48:46;99174.22;;;9.01;80.72
5062;BME280;2351;50.812;12.872;2024-01-30T09:51:18;99167.78;;;9.05;79.35
5062;BME280;2351;50.812;12.872;2024-01-30T09:53:51;99168.63;;;9.06;78.58
5062;BME280;2351;50.812;12.872;2024-01-30T09:56:23;99166.09;;;9.04;77.46
5062;BME280;2351;50.812;12.872;2024-01-30T09:58:56;99165.88;;;9.07;76.94
5062;BME280;2351;50.812;12.872;2024-01-30T10:01:28;99165.63;;;9.12;76.82
5062;BME280;2351;50.812;12.872;2024-01-30T10:04:00;99171.56;;;9.15;76.08
5062;BME280;2351;50.812;12.872;2024-01-30T10:06:32;99171.69;;;9.14;75.09
5062;BME280;2351;50.812;12.872;2024-01-30T10:09:04;99169.22;;;9.11;74.38
5062;BME280;2351;50.812;12.872;2024-01-30T10:11:36;99165.63;;;9.12;73.63
5062;BME280;2351;50.812;12.872;2024-01-30T10:14:09;99162.22;;;9.10;72.60
5062;BME280;2351;50.812;12.872;2024-01-30T10:16:41;99158.66;;;9.11;72.26
5062;BME280;2351;50.812;12.872;2024-01-30T10:19:13;99157.25;;;9.19;71.10
5062;BME280;2351;50.812;12.872;2024-01-30T10:21:46;99153.00;;;9.31;70.52
5062;BME280;2351;50.812;12.872;2024-01-30T10:24:17;99147.13;;;9.41;68.97
5062;BME280;2351;50.812;12.872;2024-01-30T10:26:49;99150.53;;;9.43;66.90
5062;BME280;2351;50.812;12.872;2024-01-30T10:29:22;99146.38;;;9.53;66.18
5062;BME280;2351;50.812;12.872;2024-01-30T10:31:58;99150.03;;;9.65;65.78
5062;BME280;2351;50.812;12.872;2024-01-30T10:34:30;99143.31;;;9.74;64.94
5062;BME280;2351;50.812;12.872;2024-01-30T10:37:07;99137.22;;;9.86;63.54
5062;BME280;2351;50.812;12.872;2024-01-30T10:39:43;99131.16;;;9.99;63.04
5062;BME280;2351;50.812;12.872;2024-01-30T10:42:17;99126.13;;;10.08;62.29
5062;BME280;2351;50.812;12.872;2024-01-30T10:44:57;99119.38;;;10.17;60.34
5062;BME280;2351;50.812;12.872;2024-01-30T10:47:34;99122.16;;;10.29;58.85
5062;BME280;2351;50.812;12.872;2024-01-30T10:50:08;99121.94;;;10.32;57.26
5062;BME280;2351;50.812;12.872;2024-01-30T10:52:41;99112.50;;;10.42;57.07
5062;BME280;2351;50.812;12.872;2024-01-30T10:55:15;99112.28;;;10.45;55.79
5062;BME280;2351;50.812;12.872;2024-01-30T10:57:47;99116.41;;;10.49;54.17
5062;BME280;2351;50.812;12.872;2024-01-30T11:00:21;99108.25;;;10.52;54.06
5062;BME280;2351;50.812;12.872;2024-01-30T11:02:54;99108.81;;;10.58;54.04
5062;BME280;2351;50.812;12.872;2024-01-30T11:05:27;99103.00;;;10.65;53.24
5062;BME280;2351;50.812;12.872;2024-01-30T11:07:59;99106.59;;;10.77;53.19
5062;BME280;2351;50.812;12.872;2024-01-30T11:10:45;99109.56;;;10.85;52.89
5062;BME280;2351;50.812;12.872;2024-01-30T11:13:19;99105.53;;;10.93;52.52
5062;BME280;2351;50.812;12.872;2024-01-30T11:15:52;99101.63;;;10.98;53.37
5062;BME280;2351;50.812;12.872;2024-01-30T11:18:24;99098.78;;;11.02;52.48
5062;BME280;2351;50.812;12.872;2024-01-30T11:20:57;99096.00;;;11.03;52.91
5062;BME280;2351;50.812;12.872;2024-01-30T11:23:33;99089.63;;;11.06;53.09
5062;BME280;2351;50.812;12.872;2024-01-30T11:26:05;99091.34;;;11.07;53.54
5062;BME280;2351;50.812;12.872;2024-01-30T11:28:38;99091.44;;;11.05;54.04
5062;BME280;2351;50.812;12.872;2024-01-30T11:31:18;99086.16;;;11.05;54.25
5062;BME280;2351;50.812;12.872;2024-01-30T11:33:52;99082.34;;;11.09;54.66
5062;BME280;2351;50.812;12.872;2024-01-30T11:36:25;99093.03;;;11.08;55.09
5062;BME280;2351;50.812;12.872;2024-01-30T11:38:57;99088.81;;;11.05;54.99
5062;BME280;2351;50.812;12.872;2024-01-30T11:41:30;99084.34;;;11.06;55.59
5062;BME280;2351;50.812;12.872;2024-01-30T11:44:03;99086.16;;;11.05;56.22
5062;BME280;2351;50.812;12.872;2024-01-30T11:46:36;99083.50;;;11.05;56.62
5062;BME280;2351;50.812;12.872;2024-01-30T11:49:08;99088.69;;;11.07;56.76
5062;BME280;2351;50.812;12.872;2024-01-30T11:51:40;99087.53;;;11.11;56.86
5062;BME280;2351;50.812;12.872;2024-01-30T11:54:12;99084.53;;;11.15;57.34
5062;BME280;2351;50.812;12.872;2024-01-30T11:56:45;99080.31;;;11.13;57.29
5062;BME280;2351;50.812;12.872;2024-01-30T11:59:17;99074.28;;;11.11;58.00
5062;BME280;2351;50.812;12.872;2024-01-30T12:01:51;99073.31;;;11.12;58.10
5062;BME280;2351;50.812;12.872;2024-01-30T12:04:23;99070.78;;;11.10;58.64
5062;BME280;2351;50.812;12.872;2024-01-30T12:06:55;99071.63;;;11.11;58.67
5062;BME280;2351;50.812;12.872;2024-01-30T12:09:26;99068.13;;;11.10;58.87
5062;BME280;2351;50.812;12.872;2024-01-30T12:11:58;99072.25;;;11.14;59.21
5062;BME280;2351;50.812;12.872;2024-01-30T12:14:30;99072.56;;;11.23;59.30
5062;BME280;2351;50.812;12.872;2024-01-30T12:17:04;99069.28;;;11.32;59.62
5062;BME280;2351;50.812;12.872;2024-01-30T12:19:36;99066.41;;;11.35;59.50
5062;BME280;2351;50.812;12.872;2024-01-30T12:22:10;99067.84;;;11.39;59.47
5062;BME280;2351;50.812;12.872;2024-01-30T12:24:42;99064.97;;;11.42;59.44
5062;BME280;2351;50.812;12.872;2024-01-30T12:27:15;99069.13;;;11.47;59.44
5062;BME280;2351;50.812;12.872;2024-01-30T12:29:47;99066.81;;;11.42;59.30
5062;BME280;2351;50.812;12.872;2024-01-30T12:32:20;99070.50;;;11.39;59.22
5062;BME280;2351;50.812;12.872;2024-01-30T12:34:56;99068.09;;;11.36;59.56
5062;BME280;2351;50.812;12.872;2024-01-30T12:37:29;99070.44;;;11.28;59.72
5062;BME280;2351;50.812;12.872;2024-01-30T12:40:01;99054.88;;;11.23;60.00
5062;BME280;2351;50.812;12.872;2024-01-30T12:42:33;99061.88;;;11.24;60.23
5062;BME280;2351;50.812;12.872;2024-01-30T12:45:06;99053.19;;;11.22;60.39
5062;BME280;2351;50.812;12.872;2024-01-30T12:47:39;99055.72;;;11.24;60.23
5062;BME280;2351;50.812;12.872;2024-01-30T12:50:11;99058.25;;;11.25;60.48
5062;BME280;2351;50.812;12.872;2024-01-30T12:52:46;99054.88;;;11.23;60.28
5062;BME280;2351;50.812;12.872;2024-01-30T12:55:17;99052.31;;;11.22;60.49
5062;BME280;2351;50.812;12.872;2024-01-30T12:57:49;99050.84;;;11.18;60.34
5062;BME280;2351;50.812;12.872;2024-01-30T13:00:24;99046.72;;;11.13;60.63
5062;BME280;2351;50.812;12.872;2024-01-30T13:03:11;99051.38;;;11.10;60.49
5062;BME280;2351;50.812;12.872;2024-01-30T13:05:43;99045.47;;;11.06;60.56
5062;BME280;2351;50.812;12.872;2024-01-30T13:08:15;99055.09;;;11.07;60.78
5062;BME280;2351;50.812;12.872;2024-01-30T13:10:47;99048.53;;;11.00;60.84
5062;BME280;2351;50.812;12.872;2024-01-30T13:13:19;99046.09;;;10.97;60.82
5062;BME280;2351;50.812;12.872;2024-01-30T13:15:51;99043.16;;;10.89;60.84
5062;BME280;2351;50.812;12.872;2024-01-30T13:18:24;99041.56;;;10.86;61.05
5062;BME280;2351;50.812;12.872;2024-01-30T13:20:56;99039.84;;;10.85;61.30
5062;BME280;2351;50.812;12.872;2024-01-30T13:23:28;99038.59;;;10.91;61.07
5062;BME280;2351;50.812;12.872;2024-01-30T13:26:00;99040.31;;;10.92;61.19
5062;BME280;2351;50.812;12.872;2024-01-30T13:28:31;99040.06;;;10.82;60.92
5062;BME280;2351;50.812;12.872;2024-01-30T13:31:04;99034.56;;;10.72;61.53
5062;BME280;2351;50.812;12.872;2024-01-30T13:33:38;99037.75;;;10.77;61.33
5062;BME280;2351;50.812;12.872;2024-01-30T13:36:11;99034.28;;;10.77;61.41
5062;BME280;2351;50.812;12.872;2024-01-30T13:38:43;99033.63;;;10.73;61.75
5062;BME280;2351;50.812;12.872;2024-01-30T13:41:15;99028.44;;;10.72;61.80